Time;durP1;ratioP1;P1;durP2;ratioP2;P2;SDS_P1;SDS_P2;PMS_P1;PMS_P2;Temp;Humidity;BMP_temperature;BMP_pressure;BME280_temperature;BME280_humidity;BME280_pressure;Samples;Min_cycle;Max_cycle;Signal;HPM_P1;HPM_P2
2023/02/22 00:01:49;;;;;;;;;;;10.80;83.60;;;9.48;67.91;100486.09;4951058;29;20057;-75
2023/02/22 00:04:19;;;;;;;;;;;10.80;83.60;;;9.47;67.95;100487.13;4951419;29;19927;-76
2023/02/22 00:06:48;;;;;;;;;;;10.80;83.60;;;9.51;68.18;100493.66;4950541;29;19930;-76
2023/02/22 00:09:19;;;;;;;;;;;10.80;83.80;;;9.55;68.07;100488.75;4951278;29;19977;-76
2023/02/22 00:11:47;;;;;;;;;;;10.80;83.90;;;9.55;68.06;100486.09;4950710;28;19927;-76
2023/02/22 00:14:14;;;;;;;;;;;10.80;83.90;;;9.53;68.20;100486.31;4951189;29;19926;-76
2023/02/22 00:16:41;;;;;;;;;;;10.80;83.90;;;9.53;68.13;100477.50;4951162;29;19926;-76
2023/02/22 00:19:09;;;;;;;;;;;10.80;83.90;;;9.53;68.30;100488.97;4950841;29;20407;-76
2023/02/22 00:21:37;;;;;;;;;;;10.80;83.90;;;9.53;68.29;100488.97;4951281;28;19926;-75
2023/02/22 00:24:21;;;;;;;;;;;10.80;84.10;;;9.55;68.20;100481.59;4950562;28;19973;-75
2023/02/22 00:26:51;;;;;;;;;;;10.80;84.10;;;9.52;68.39;100484.66;4951251;29;19930;-76
2023/02/22 00:29:18;;;;;;;;;;;10.80;84.30;;;9.51;68.57;100480.34;4949725;28;19935;-76
2023/02/22 00:31:45;;;;;;;;;;;10.80;84.50;;;9.51;68.69;100480.34;4950284;28;20323;-76
2023/02/22 00:34:13;;;;;;;;;;;10.70;84.60;;;9.51;68.79;100480.34;4934773;29;20033;-77
2023/02/22 00:36:45;;;;;;;;;;;10.70;84.70;;;9.51;68.85;100477.69;4950339;29;19930;-76
2023/02/22 00:39:12;;;;;;;;;;;10.70;84.80;;;9.49;68.83;100473.59;4935474;29;20414;-75
2023/02/22 00:41:39;;;;;;;;;;;10.70;84.80;;;9.47;69.03;100473.81;4933845;28;19926;-76
2023/02/22 00:44:08;;;;;;;;;;;10.80;84.70;;;9.47;68.95;100470.34;4933858;29;19927;-76
2023/02/22 00:46:34;;;;;;;;;;;10.80;84.70;;;9.46;68.94;100468.69;4937034;29;19926;-76
2023/02/22 00:49:09;;;;;;;;;;;10.80;84.70;;;9.44;69.08;100462.75;4950491;29;20040;-76
2023/02/22 00:51:36;;;;;;;;;;;10.70;84.80;;;9.43;69.17;100463.78;4941981;28;19941;-75
2023/02/22 00:54:04;;;;;;;;;;;10.70;84.90;;;9.44;69.32;100460.09;4950593;29;19952;-76
2023/02/22 00:56:32;;;;;;;;;;;10.70;84.90;;;9.43;69.29;100451.28;4949257;28;20417;-76
2023/02/22 00:59:00;;;;;;;;;;;10.70;84.90;;;9.43;69.35;100453.13;4950577;28;19930;-75
2023/02/22 01:01:29;;;;;;;;;;;10.70;84.80;;;9.44;69.26;100452.09;4949193;28;19956;-76
2023/02/22 01:03:56;;;;;;;;;;;10.70;84.80;;;9.43;69.19;100451.28;4950765;29;20291;-76
2023/02/22 01:06:23;;;;;;;;;;;10.70;84.90;;;9.44;69.39;100452.09;4950250;28;19930;-76
2023/02/22 01:08:51;;;;;;;;;;;10.70;84.90;;;9.44;69.54;100449.44;4941766;29;19937;-77
2023/02/22 01:11:18;;;;;;;;;;;10.80;85.00;;;9.47;69.38;100451.69;4954231;28;19930;-76
2023/02/22 01:13:45;;;;;;;;;;;10.70;85.00;;;9.43;69.55;100447.81;4953747;29;19927;-76
2023/02/22 01:16:12;;;;;;;;;;;10.70;85.00;;;9.41;69.64;100447.16;4952891;29;19926;-76
2023/02/22 01:18:40;;;;;;;;;;;10.70;85.10;;;9.39;69.82;100447.38;4950656;29;20454;-76
2023/02/22 01:21:07;;;;;;;;;;;10.70;85.10;;;9.39;69.82;100441.25;4954300;29;20016;-75
2023/02/22 01:23:35;;;;;;;;;;;11.00;85.20;;;9.36;69.95;100447.78;4953580;28;20422;-75
2023/02/22 01:26:04;;;;;;;;;;;10.70;85.20;;;9.39;70.01;100442.06;4952187;29;19930;-75
2023/02/22 01:28:31;;;;;;;;;;;10.70;85.30;;;9.41;69.90;100437.34;4952131;29;19930;-76
2023/02/22 01:30:58;;;;;;;;;;;10.70;85.30;;;9.44;69.84;100438.78;4936237;29;19936;-75
2023/02/22 01:33:25;;;;;;;;;;;10.70;85.30;;;9.44;69.99;100436.13;4953802;28;19926;-75
2023/02/22 01:35:54;;;;;;;;;;;10.70;85.30;;;9.41;69.92;100424.03;4952261;29;19977;-76
2023/02/22 01:38:21;;;;;;;;;;;10.70;85.50;;;9.40;70.14;100422.41;4953503;29;19935;-75
2023/02/22 01:40:50;;;;;;;;;;;10.70;85.50;;;9.42;69.88;100424.84;4953813;29;19941;-75
2023/02/22 01:43:21;;;;;;;;;;;10.70;85.50;;;9.43;69.94;100426.50;4953055;28;19942;-75
2023/02/22 01:45:58;;;;;;;;;;;10.70;85.50;;;9.41;69.98;100420.56;4952186;29;19931;-76
2023/02/22 01:48:31;;;;;;;;;;;10.70;85.50;;;9.39;69.96;100425.28;4953078;28;19941;-76
2023/02/22 01:51:09;;;;;;;;;;;10.70;85.50;;;9.38;69.82;100419.13;4952361;29;19934;-76
2023/02/22 01:53:44;;;;;;;;;;;10.70;85.40;;;9.36;70.32;100413.19;4951990;28;19930;-76
2023/02/22 01:56:13;;;;;;;;;;;10.70;85.60;;;9.38;70.00;100418.31;4952918;29;19931;-76
2023/02/22 01:58:43;;;;;;;;;;;10.70;85.60;;;9.33;70.11;100415.44;4945267;29;19937;-75
2023/02/22 02:01:11;;;;;;;;;;;10.70;85.50;;;9.34;70.14;100412.56;4953133;28;19926;-75
2023/02/22 02:03:40;;;;;;;;;;;10.90;85.50;;;9.30;69.91;100411.34;4951368;28;19934;-75
2023/02/22 02:06:12;;;;;;;;;;;10.70;85.30;;;9.28;70.09;100414.22;4952981;29;19930;-76
2023/02/22 02:08:48;;;;;;;;;;;10.70;85.30;;;9.29;69.85;100415.03;4952953;29;19935;-76
2023/02/22 02:11:17;;;;;;;;;;;10.70;85.30;;;9.23;70.15;100416.69;4952027;29;19926;-76
2023/02/22 02:13:45;;;;;;;;;;;10.60;85.50;;;9.25;69.98;100406.63;4952683;29;19926;-76
2023/02/22 02:16:12;;;;;;;;;;;10.50;85.40;;;9.29;69.88;100404.38;4953038;29;19930;-75
2023/02/22 02:18:39;;;;;;;;;;;10.60;85.30;;;9.27;69.68;100401.94;4952377;28;19934;-76
2023/02/22 02:21:48;;;;;;;;;;;10.60;85.20;;;9.23;69.92;100400.72;4935700;29;19961;-75
2023/02/22 02:24:47;;;;;;;;;;;10.60;85.10;;;9.27;69.70;100399.28;4932556;29;19926;-76
2023/02/22 02:27:18;;;;;;;;;;;10.60;85.10;;;9.26;69.63;100386.16;4939430;29;19930;-76
2023/02/22 02:30:36;;;;;;;;;;;10.60;85.20;;;9.25;69.58;100388.00;4950920;29;19926;-75
2023/02/22 02:33:06;;;;;;;;;;;10.50;85.30;;;9.26;69.83;100375.50;4935493;29;19933;-76
2023/02/22 02:35:44;;;;;;;;;;;10.50;85.30;;;9.28;69.68;100381.47;4951158;28;19969;-76
2023/02/22 02:38:16;;;;;;;;;;;10.50;85.40;;;9.28;69.62;100374.31;4943721;29;19946;-76
2023/02/22 02:40:48;;;;;;;;;;;10.50;85.40;;;9.29;69.81;100378.59;4952799;29;19926;-76
2023/02/22 02:43:20;;;;;;;;;;;10.50;85.50;;;9.28;69.88;100373.47;4952224;28;19981;-76
2023/02/22 02:45:51;;;;;;;;;;;10.50;85.50;;;9.31;69.74;100380.22;4954802;28;19937;-76
2023/02/22 02:48:23;;;;;;;;;;;10.50;85.50;;;9.26;69.89;100371.00;4959389;28;19926;-76
2023/02/22 02:50:51;;;;;;;;;;;10.50;85.50;;;9.24;70.04;100370.41;4950925;28;19934;-76
2023/02/22 02:53:21;;;;;;;;;;;10.50;85.60;;;9.23;70.14;100360.78;4952132;28;20486;-76
2023/02/22 02:55:50;;;;;;;;;;;10.50;85.60;;;9.24;70.19;100358.94;4951725;29;20025;-76
2023/02/22 02:58:19;;;;;;;;;;;10.50;85.60;;;9.20;70.46;100363.03;4938225;29;19950;-76
2023/02/22 03:00:47;;;;;;;;;;;10.50;85.70;;;9.20;70.39;100357.72;4950465;28;19977;-76
2023/02/22 03:03:37;;;;;;;;;;;10.50;85.90;;;9.18;70.67;100357.13;4950769;28;19938;-76
2023/02/22 03:06:16;;;;;;;;;;;10.50;85.90;;;9.22;70.25;100359.16;4934820;29;20387;-76
2023/02/22 03:08:49;;;;;;;;;;;10.50;85.80;;;9.20;70.19;100350.53;4945995;29;19931;-76
2023/02/22 03:11:18;;;;;;;;;;;10.50;85.80;;;9.23;70.33;100352.00;4952233;29;19953;-76
2023/02/22 03:13:54;;;;;;;;;;;10.50;85.80;;;9.21;70.34;100351.38;4945407;29;19965;-75
2023/02/22 03:16:30;;;;;;;;;;;10.50;85.90;;;9.26;70.44;100335.59;4950789;29;19927;-76
2023/02/22 03:19:07;;;;;;;;;;;10.50;85.90;;;9.27;70.06;100331.91;4936546;29;20405;-75
2023/02/22 03:21:42;;;;;;;;;;;10.40;85.80;;;9.29;69.68;100340.53;4934620;29;19977;-76
2023/02/22 03:24:11;;;;;;;;;;;10.50;85.80;;;9.26;69.83;100331.09;4950427;28;19937;-75
2023/02/22 03:26:44;;;;;;;;;;;10.50;85.70;;;9.22;69.79;100323.72;4933795;29;19930;-75
2023/02/22 03:29:14;;;;;;;;;;;10.40;85.50;;;9.21;69.89;100325.56;4937946;29;19934;-75
2023/02/22 03:34:26;;;;;;;;;;;10.40;85.60;;;9.18;69.61;100318.03;4987557;28;20424;-87
2023/02/22 03:36:59;;;;;;;;;;;10.40;85.50;;;9.13;69.70;100328.47;4984146;28;19930;-87
2023/02/22 03:39:29;;;;;;;;;;;10.40;85.50;;;9.09;69.82;100313.94;4953749;28;20017;-87
2023/02/22 03:41:59;;;;;;;;;;;10.30;85.60;;;9.10;69.66;100317.41;4953940;28;19977;-88
2023/02/22 03:44:29;;;;;;;;;;;10.30;85.60;;;9.11;69.56;100316.38;4972203;28;19926;-87
2023/02/22 03:46:59;;;;;;;;;;;10.30;85.50;;;9.09;69.62;100321.91;4972335;28;20338;-87
2023/02/22 03:49:33;;;;;;;;;;;10.30;85.50;;;9.12;69.41;100324.13;4972358;28;19929;-87
2023/02/22 03:52:01;;;;;;;;;;;10.30;85.30;;;9.10;68.93;100307.56;4972068;28;19941;-87
2023/02/22 03:54:30;;;;;;;;;;;10.30;85.10;;;9.07;68.92;100307.16;4972644;28;19934;-87
2023/02/22 03:56:59;;;;;;;;;;;10.30;85.00;;;9.02;68.94;100310.44;4971580;28;20052;-87
2023/02/22 03:59:28;;;;;;;;;;;10.30;84.90;;;9.03;68.93;100314.75;4972504;28;20673;-87
2023/02/22 04:01:56;;;;;;;;;;;10.30;84.90;;;9.04;68.87;100311.06;4971952;28;19960;-87
2023/02/22 04:04:23;;;;;;;;;;;10.30;84.80;;;9.02;68.60;100313.91;4990132;28;19930;-87
2023/02/22 04:06:53;;;;;;;;;;;10.30;84.60;;;9.00;68.67;100309.84;4972001;28;19969;-87
2023/02/22 04:09:20;;;;;;;;;;;10.30;84.50;;;8.98;68.55;100318.03;4972222;28;20432;-87
2023/02/22 04:14:15;;;;;;;;;;;10.30;84.40;;;8.93;68.57;100320.47;4955656;28;19930;-87
2023/02/22 04:16:42;;;;;;;;;;;10.30;84.30;;;8.90;68.85;100326.19;4949760;28;19930;-86
2023/02/22 04:19:10;;;;;;;;;;;10.30;84.40;;;8.88;68.88;100324.75;4949685;28;19934;-87
2023/02/22 04:21:38;;;;;;;;;;;10.30;84.40;;;8.89;68.71;100326.41;4933727;29;19969;-87
2023/02/22 04:24:10;;;;;;;;;;;10.30;84.20;;;8.90;68.41;100330.69;4930353;29;19992;-87
2023/02/22 04:26:38;;;;;;;;;;;10.30;84.10;;;8.91;68.28;100332.31;4926923;29;19959;-87
2023/02/22 04:29:07;;;;;;;;;;;10.20;83.90;;;8.87;68.30;100328.44;4929521;29;20033;-87
2023/02/22 04:31:38;;;;;;;;;;;10.20;84.10;;;8.88;68.28;100330.06;4932159;29;20422;-87
2023/02/22 04:34:05;;;;;;;;;;;10.20;84.10;;;8.91;68.20;100327.00;4945039;29;19930;-87
2023/02/22 04:36:35;;;;;;;;;;;10.20;83.90;;;8.92;68.05;100320.66;4930147;29;20334;-87
2023/02/22 04:39:04;;;;;;;;;;;10.20;83.90;;;8.87;67.90;100328.44;4930085;29;19930;-87
2023/02/22 04:41:33;;;;;;;;;;;10.20;83.90;;;8.84;68.16;100320.88;4914767;29;19977;-87
2023/02/22 04:44:00;;;;;;;;;;;10.20;83.90;;;8.81;68.10;100326.59;4932718;29;19931;-87
2023/02/22 04:46:28;;;;;;;;;;;10.10;84.10;;;8.77;68.39;100321.66;4918164;29;19931;-86
2023/02/22 04:48:56;;;;;;;;;;;10.10;84.10;;;8.81;68.37;100311.47;4934527;29;19981;-87
2023/02/22 04:51:26;;;;;;;;;;;10.10;84.10;;;8.84;68.05;100315.56;4934062;29;19985;-86
2023/02/22 04:54:13;;;;;;;;;;;10.10;83.90;;;8.82;68.06;100318.41;4934149;29;19927;-87
2023/02/22 04:56:45;;;;;;;;;;;10.10;83.80;;;8.83;67.83;100306.75;4933493;29;19975;-87
2023/02/22 04:59:12;;;;;;;;;;;10.10;83.70;;;8.87;67.74;100312.47;4935261;29;19927;-87
2023/02/22 05:01:43;;;;;;;;;;;10.20;83.70;;;8.88;67.68;100299.00;4917822;29;20391;-87
2023/02/22 05:04:10;;;;;;;;;;;10.10;83.50;;;8.86;67.26;100292.22;4934132;29;20022;-87
2023/02/22 05:06:36;;;;;;;;;;;10.10;83.40;;;8.83;67.41;100292.63;4933739;29;19938;-86
2023/02/22 05:09:04;;;;;;;;;;;10.10;83.30;;;8.77;67.24;100283.63;4934911;29;19930;-82
2023/02/22 05:11:31;;;;;;;;;;;10.10;83.30;;;8.73;67.30;100288.53;4924062;29;20619;-89
2023/02/22 05:13:59;;;;;;;;;;;10.10;83.30;;;8.70;67.36;100286.28;4934651;29;20420;-87
2023/02/22 05:16:26;;;;;;;;;;;10.20;83.30;;;8.73;67.43;100283.22;4934769;29;19931;-85
2023/02/22 05:18:53;;;;;;;;;;;10.10;83.30;;;8.72;67.33;100275.44;4935233;29;20033;-86
2023/02/22 05:21:20;;;;;;;;;;;10.10;83.20;;;8.72;67.14;100272.78;4932555;29;20307;-85
2023/02/22 05:23:47;;;;;;;;;;;10.00;83.00;;;8.68;67.33;100276.88;4949340;29;20303;-85
2023/02/22 05:26:14;;;;;;;;;;;10.00;83.10;;;8.69;67.30;100271.38;4938061;29;19977;-85
2023/02/22 05:28:41;;;;;;;;;;;10.00;83.10;;;8.70;67.24;100267.69;4934911;29;20348;-84
2023/02/22 05:31:09;;;;;;;;;;;10.00;83.00;;;8.71;66.99;100265.84;4929935;29;19927;-84
2023/02/22 05:33:38;;;;;;;;;;;10.00;82.90;;;8.68;67.08;100267.06;4926776;29;19930;-85
2023/02/22 05:36:06;;;;;;;;;;;10.00;82.90;;;8.68;66.82;100266.25;4934529;29;19927;-84
2023/02/22 05:38:33;;;;;;;;;;;10.00;82.90;;;8.66;67.04;100268.28;4934366;29;19934;-84
2023/02/22 05:41:00;;;;;;;;;;;10.00;82.80;;;8.69;67.06;100262.59;4934402;29;19934;-85
2023/02/22 05:43:27;;;;;;;;;;;9.90;82.80;;;8.69;66.44;100259.94;4934240;29;20387;-85
2023/02/22 05:45:54;;;;;;;;;;;10.00;82.70;;;8.68;66.39;100252.94;4933910;29;19931;-85
2023/02/22 05:48:22;;;;;;;;;;;10.00;82.70;;;8.64;66.40;100260.53;4934405;29;20033;-85
2023/02/22 05:50:49;;;;;;;;;;;10.00;82.60;;;8.61;66.50;100255.63;4934228;29;20049;-83
2023/02/22 05:53:16;;;;;;;;;;;9.90;82.60;;;8.57;66.66;100262.34;4933714;29;20592;-84
2023/02/22 05:55:43;;;;;;;;;;;9.90;82.70;;;8.52;66.76;100248.84;4933607;29;19927;-87
2023/02/22 05:58:10;;;;;;;;;;;9.90;82.70;;;8.58;66.62;100252.53;4934094;29;19937;-87
2023/02/22 06:00:37;;;;;;;;;;;9.90;82.60;;;8.58;66.49;100257.84;4917217;29;19930;-86
2023/02/22 06:03:06;;;;;;;;;;;9.80;82.50;;;8.58;66.36;100248.03;4933358;29;19938;-85
2023/02/22 06:05:35;;;;;;;;;;;9.80;82.40;;;8.60;66.26;100246.00;4916469;29;20363;-85
2023/02/22 06:08:02;;;;;;;;;;;9.80;82.40;;;8.63;66.04;100242.91;4931124;29;19937;-86
2023/02/22 06:10:29;;;;;;;;;;;9.80;82.50;;;8.63;66.03;100244.75;4933159;29;19967;-86
2023/02/22 06:12:57;;;;;;;;;;;9.80;82.50;;;8.60;65.76;100246.00;4933894;29;19931;-88
2023/02/22 06:15:24;;;;;;;;;;;9.80;82.30;;;8.55;65.83;100243.13;4933428;29;20407;-87
2023/02/22 06:17:53;;;;;;;;;;;9.70;82.30;;;8.53;65.88;100250.47;4934042;29;19938;-86
2023/02/22 06:20:22;;;;;;;;;;;9.70;82.30;;;8.51;65.92;100247.22;4933684;29;19941;-80
2023/02/22 06:22:51;;;;;;;;;;;9.70;82.20;;;8.51;65.69;100253.34;4934180;29;19930;-80
2023/02/22 06:25:20;;;;;;;;;;;9.70;82.20;;;8.49;65.43;100254.56;4933771;29;19927;-83
2023/02/22 06:27:48;;;;;;;;;;;9.80;82.00;;;8.44;65.93;100254.34;4932357;29;19962;-83
2023/02/22 06:30:16;;;;;;;;;;;9.80;82.10;;;8.41;65.87;100258.25;4933986;29;19931;-83
2023/02/22 06:32:43;;;;;;;;;;;9.70;82.10;;;8.40;66.08;100250.50;4933553;29;19933;-85
2023/02/22 06:35:10;;;;;;;;;;;9.70;82.20;;;8.38;66.19;100255.97;4933795;29;19937;-83
2023/02/22 06:37:38;;;;;;;;;;;9.70;82.20;;;8.40;66.01;100250.50;4931758;29;20307;-82
2023/02/22 06:40:07;;;;;;;;;;;9.70;82.20;;;8.37;65.93;100254.34;4933137;29;19930;-82
2023/02/22 06:42:34;;;;;;;;;;;9.70;82.00;;;8.34;65.82;100256.56;4933347;29;19934;-82
2023/02/22 06:45:00;;;;;;;;;;;9.70;82.00;;;8.36;66.03;100249.22;4933297;29;19934;-84
2023/02/22 06:47:28;;;;;;;;;;;9.60;82.20;;;8.39;65.90;100251.47;4933548;29;20383;-81
2023/02/22 06:49:55;;;;;;;;;;;9.60;82.10;;;8.37;65.68;100250.88;4933045;29;19931;-80
2023/02/22 06:52:22;;;;;;;;;;;9.60;82.00;;;8.34;65.97;100251.25;4932875;29;20013;-84
2023/02/22 06:54:49;;;;;;;;;;;9.60;82.20;;;8.36;65.68;100254.53;4932657;29;19950;-85
2023/02/22 06:57:17;;;;;;;;;;;9.60;82.30;;;8.37;65.93;100249.03;4932151;29;20274;-85
2023/02/22 06:59:45;;;;;;;;;;;9.60;82.50;;;8.36;65.59;100255.38;4931041;29;19926;-85
2023/02/22 07:02:12;;;;;;;;;;;9.60;82.30;;;8.34;65.88;100253.91;4932491;29;20440;-85
2023/02/22 07:04:40;;;;;;;;;;;9.50;82.60;;;8.33;66.00;100246.97;4932988;29;19937;-85
2023/02/22 07:07:07;;;;;;;;;;;9.50;82.60;;;8.33;66.03;100250.44;4931895;29;19930;-85
2023/02/22 07:09:34;;;;;;;;;;;9.60;82.50;;;8.32;66.04;100248.78;4933252;29;19961;-84
2023/02/22 07:12:01;;;;;;;;;;;9.50;82.70;;;8.33;65.88;100254.94;4931423;29;19941;-85
2023/02/22 07:14:29;;;;;;;;;;;9.50;82.70;;;8.30;65.97;100250.84;4933003;29;19931;-85
2023/02/22 07:16:56;;;;;;;;;;;9.50;82.70;;;8.29;66.18;100246.53;4932657;29;19930;-85
2023/02/22 07:19:23;;;;;;;;;;;9.50;82.70;;;8.29;66.32;100246.53;4932344;29;19930;-84
2023/02/22 07:21:56;;;;;;;;;;;9.50;82.80;;;8.30;66.22;100242.06;4931703;29;19958;-84
2023/02/22 07:24:23;;;;;;;;;;;9.50;82.70;;;8.30;65.97;100242.06;4930446;29;20359;-85
2023/02/22 07:26:50;;;;;;;;;;;9.50;82.70;;;8.33;65.84;100255.75;4936053;29;19935;-85
2023/02/22 07:29:17;;;;;;;;;;;9.50;82.50;;;8.30;65.71;100242.88;4932649;29;20388;-85
2023/02/22 07:31:45;;;;;;;;;;;9.50;82.40;;;8.31;65.84;100243.69;4935529;29;19927;-85
2023/02/22 07:34:13;;;;;;;;;;;9.50;82.40;;;8.27;65.81;100248.59;4932835;29;19937;-85
2023/02/22 07:36:40;;;;;;;;;;;9.50;82.20;;;8.26;65.64;100246.94;4923638;29;20340;-84
2023/02/22 07:39:07;;;;;;;;;;;9.50;82.20;;;8.21;65.80;100244.91;4932172;29;19937;-84
2023/02/22 07:41:34;;;;;;;;;;;9.50;82.20;;;8.23;65.85;100255.31;4932607;29;20400;-84
2023/02/22 07:44:01;;;;;;;;;;;9.50;82.30;;;8.23;65.97;100250.00;4931937;29;20037;-84
2023/02/22 07:46:28;;;;;;;;;;;9.50;82.40;;;8.27;66.06;100245.94;4932150;29;19938;-84
2023/02/22 07:48:57;;;;;;;;;;;9.50;82.50;;;8.31;65.65;100243.69;4931892;29;19973;-85
2023/02/22 07:51:23;;;;;;;;;;;9.50;82.20;;;8.27;65.38;100241.44;4932465;29;19931;-84
2023/02/22 07:53:50;;;;;;;;;;;9.40;82.30;;;8.24;65.50;100235.69;4932377;29;19934;-84
2023/02/22 07:56:17;;;;;;;;;;;9.40;82.50;;;8.21;65.69;100236.13;4930601;29;19934;-84
2023/02/22 07:58:44;;;;;;;;;;;9.40;82.60;;;8.16;65.90;100228.75;4932301;29;19937;-84
2023/02/22 08:01:11;;;;;;;;;;;9.40;82.60;;;8.12;66.04;100234.66;4930735;29;20045;-84
2023/02/22 08:03:38;;;;;;;;;;;9.40;82.60;;;8.14;66.35;100233.41;4932380;29;20663;-84
2023/02/22 08:06:07;;;;;;;;;;;9.40;82.90;;;8.13;66.10;100229.13;4931625;29;20284;-84
2023/02/22 08:08:35;;;;;;;;;;;9.30;82.90;;;8.16;66.01;100222.63;4931075;29;19933;-84
2023/02/22 08:11:05;;;;;;;;;;;9.40;83.00;;;8.15;66.02;100221.81;4930901;29;20387;-84
2023/02/22 08:13:35;;;;;;;;;;;9.40;82.90;;;8.13;66.24;100221.16;4931804;29;19937;-84
2023/02/22 08:16:03;;;;;;;;;;;9.40;82.90;;;8.10;66.62;100218.94;4932441;29;20383;-84
2023/02/22 08:18:30;;;;;;;;;;;9.40;83.00;;;8.14;66.47;100219.31;4938104;29;19950;-84
2023/02/22 08:20:57;;;;;;;;;;;9.40;83.10;;;8.21;66.60;100215.69;4938537;29;19990;-84
2023/02/22 08:23:26;;;;;;;;;;;9.40;83.20;;;8.21;66.94;100223.66;4937849;29;19931;-84
2023/02/22 08:25:53;;;;;;;;;;;9.40;83.50;;;8.26;67.03;100229.16;4938180;29;20523;-84
2023/02/22 08:28:22;;;;;;;;;;;9.40;83.40;;;8.24;66.72;100207.28;4938502;29;19927;-84
2023/02/22 08:30:49;;;;;;;;;;;9.40;83.50;;;8.31;66.86;100211.81;4938045;29;19931;-84
2023/02/22 08:33:18;;;;;;;;;;;9.40;83.50;;;8.33;66.86;100215.06;4938548;29;19931;-84
2023/02/22 08:35:48;;;;;;;;;;;9.50;83.70;;;8.36;67.08;100212.88;4937904;29;19927;-84
2023/02/22 08:38:17;;;;;;;;;;;9.50;83.90;;;8.40;67.09;100207.97;4936959;29;19933;-84
2023/02/22 08:40:47;;;;;;;;;;;9.50;83.90;;;8.43;67.49;100207.53;4937524;29;19978;-84
2023/02/22 08:43:14;;;;;;;;;;;9.60;84.10;;;8.45;67.37;100202.88;4938397;29;19978;-84
2023/02/22 08:45:42;;;;;;;;;;;9.50;84.10;;;8.44;67.53;100203.88;4938099;29;20380;-84
2023/02/22 08:48:09;;;;;;;;;;;9.70;84.40;;;8.46;67.54;100201.84;4938002;29;19927;-84
2023/02/22 08:50:36;;;;;;;;;;;9.60;84.30;;;8.49;67.50;100196.09;4938165;29;19927;-84
2023/02/22 08:53:05;;;;;;;;;;;9.60;84.20;;;8.50;67.69;100198.56;4937759;29;19931;-84
2023/02/22 08:55:33;;;;;;;;;;;9.60;84.30;;;8.55;67.88;100186.50;4938104;29;20034;-84
2023/02/22 08:58:03;;;;;;;;;;;9.70;84.70;;;8.54;68.19;100183.03;4937676;29;19927;-84
2023/02/22 09:00:32;;;;;;;;;;;9.70;84.80;;;8.58;68.39;100184.25;4938302;29;19926;-84
2023/02/22 09:03:00;;;;;;;;;;;9.70;85.10;;;8.61;68.26;100188.34;4938138;29;19930;-84
2023/02/22 09:05:26;;;;;;;;;;;9.80;85.00;;;8.65;68.72;100190.38;4936511;29;19930;-84
2023/02/22 09:07:54;;;;;;;;;;;9.80;85.40;;;8.67;68.93;100175.03;4937981;29;19931;-84
2023/02/22 09:10:23;;;;;;;;;;;9.80;85.40;;;8.71;69.05;100189.56;4936383;29;19938;-84
2023/02/22 09:12:50;;;;;;;;;;;9.90;85.60;;;8.74;69.09;100183.84;4938037;29;19949;-84
2023/02/22 09:15:19;;;;;;;;;;;9.80;85.60;;;8.76;69.69;100179.13;4937688;29;20388;-84
2023/02/22 09:17:46;;;;;;;;;;;9.90;86.10;;;8.76;69.72;100176.47;4936484;29;19933;-84
2023/02/22 09:20:14;;;;;;;;;;;9.90;85.90;;;8.80;69.96;100178.72;4936708;29;20302;-84
2023/02/22 09:22:44;;;;;;;;;;;9.90;86.10;;;8.84;70.00;100177.28;4937517;29;19926;-84
2023/02/22 09:25:11;;;;;;;;;;;10.00;86.30;;;8.87;70.28;100174.19;4947258;29;20391;-85
2023/02/22 09:27:39;;;;;;;;;;;10.00;86.40;;;8.90;70.70;100179.09;4955894;28;19933;-84
2023/02/22 09:30:10;;;;;;;;;;;10.00;86.70;;;8.94;70.65;100177.69;4952328;29;20033;-84
2023/02/22 09:32:38;;;;;;;;;;;10.00;86.70;;;8.96;70.71;100175.63;4959996;23;20091;-76
2023/02/22 09:35:07;;;;;;;;;;;10.00;86.70;;;8.97;70.84;100172.72;5000111;28;19936;-76
2023/02/22 09:37:34;;;;;;;;;;;10.10;86.90;;;9.00;71.15;100172.34;5011580;28;20036;-76
2023/02/22 09:40:01;;;;;;;;;;;10.10;87.10;;;9.00;71.53;100172.34;5011914;28;19925;-76
2023/02/22 09:42:32;;;;;;;;;;;10.10;87.40;;;9.01;72.69;100167.81;5012219;28;19932;-77
2023/02/22 09:45:04;;;;;;;;;;;10.20;88.20;;;9.03;73.59;100173.78;4994106;28;19929;-76
2023/02/22 09:47:38;;;;;;;;;;;10.20;89.20;;;9.06;73.86;100169.88;5011925;28;19926;-76
2023/02/22 09:50:14;;;;;;;;;;;10.20;89.10;;;9.09;73.45;100164.13;5011730;28;19929;-76
2023/02/22 09:52:54;;;;;;;;;;;10.30;88.70;;;9.14;72.97;100164.31;5011962;28;19925;-76
2023/02/22 09:55:29;;;;;;;;;;;10.30;88.30;;;9.18;72.69;100171.69;5011751;28;19940;-76
2023/02/22 09:57:58;;;;;;;;;;;10.30;88.10;;;9.23;72.91;100171.88;5006468;28;19926;-76
2023/02/22 10:00:31;;;;;;;;;;;10.40;88.50;;;9.29;73.63;100170.22;4992450;28;19934;-76
2023/02/22 10:03:06;;;;;;;;;;;10.40;89.20;;;9.31;74.41;100167.31;4991790;28;19937;-76
2023/02/22 10:05:38;;;;;;;;;;;10.40;89.70;;;9.29;74.54;100171.03;4991918;28;19934;-76
2023/02/22 10:08:11;;;;;;;;;;;10.50;89.60;;;9.28;75.00;100168.59;4991730;28;19984;-76
2023/02/22 10:10:41;;;;;;;;;;;10.50;90.00;;;9.32;75.46;100158.31;4992270;28;20005;-76
2023/02/22 10:13:15;;;;;;;;;;;10.50;90.20;;;9.35;75.90;100171.22;4991827;28;19929;-76
2023/02/22 10:15:50;;;;;;;;;;;10.50;90.60;;;9.40;76.17;100152.75;4992160;28;19930;-76
2023/02/22 10:18:42;;;;;;;;;;;10.50;90.70;;;9.44;75.76;100156.63;4991862;28;19932;-78
2023/02/22 10:21:20;;;;;;;;;;;10.60;90.60;;;9.47;76.34;100161.56;4992027;28;19936;-76
2023/02/22 10:23:55;;;;;;;;;;;10.60;90.70;;;9.51;76.35;100158.22;4992038;28;20390;-76
2023/02/22 10:26:25;;;;;;;;;;;10.70;90.80;;;9.57;76.64;100156.59;4991120;28;19933;-76
2023/02/22 10:28:55;;;;;;;;;;;10.70;91.20;;;9.64;77.05;100153.88;4991911;28;20028;-76
2023/02/22 10:31:26;;;;;;;;;;;10.80;91.20;;;9.67;76.60;100159.59;4997906;28;19926;-76
2023/02/22 10:33:57;;;;;;;;;;;10.80;90.80;;;9.72;76.58;100164.28;5011134;28;19964;-76
2023/02/22 10:36:26;;;;;;;;;;;10.90;91.00;;;9.73;76.58;100150.75;5010644;28;20020;-76
2023/02/22 10:38:56;;;;;;;;;;;10.90;90.80;;;9.79;76.48;100154.41;5011113;28;19937;-76
2023/02/22 10:41:27;;;;;;;;;;;10.90;91.00;;;9.85;76.70;100150.88;5010098;28;19933;-76
2023/02/22 10:43:55;;;;;;;;;;;11.00;91.10;;;9.93;77.11;100145.31;4993135;28;19934;-76
2023/02/22 10:46:23;;;;;;;;;;;11.10;91.30;;;10.01;75.36;100142.41;4994245;28;19926;-76
2023/02/22 10:48:53;;;;;;;;;;;11.10;90.00;;;10.08;72.31;100131.69;4986753;28;20032;-76
2023/02/22 10:51:20;;;;;;;;;;;11.20;87.70;;;10.11;71.77;100131.25;4990562;28;20370;-76
2023/02/22 10:53:58;;;;;;;;;;;11.20;87.50;;;10.17;71.75;100125.06;4993411;28;19983;-76
2023/02/22 10:56:27;;;;;;;;;;;11.20;87.30;;;10.23;70.00;100124.19;4991103;28;19936;-76
2023/02/22 10:58:58;;;;;;;;;;;11.30;86.10;;;10.28;70.34;100119.03;4978028;28;19930;-76
2023/02/22 11:01:27;;;;;;;;;;;11.40;86.40;;;10.29;69.88;100114.53;4989598;28;20382;-76
2023/02/22 11:03:59;;;;;;;;;;;11.40;85.70;;;10.30;68.74;100116.19;4990934;28;20273;-77
2023/02/22 11:06:27;;;;;;;;;;;11.40;84.90;;;10.40;67.90;100113.03;4990319;28;19936;-76
2023/02/22 11:09:05;;;;;;;;;;;11.50;84.50;;;10.45;68.09;100103.34;4991195;28;20456;-76
2023/02/22 11:11:32;;;;;;;;;;;11.50;84.30;;;10.53;66.97;100112.88;4990493;28;20613;-76
2023/02/22 11:14:01;;;;;;;;;;;11.60;83.30;;;10.59;66.85;100106.69;4990857;28;19925;-76
2023/02/22 11:16:31;;;;;;;;;;;11.70;83.30;;;10.67;66.54;100100.25;4991903;28;19926;-76
2023/02/22 11:19:05;;;;;;;;;;;11.70;83.10;;;10.75;66.58;100094.63;5001472;28;19989;-76
2023/02/22 11:21:32;;;;;;;;;;;11.80;83.20;;;10.77;65.43;100089.88;4990804;28;19925;-77
2023/02/22 11:24:07;;;;;;;;;;;11.80;81.90;;;10.77;64.42;100093.34;4990354;28;19930;-76
2023/02/22 11:26:41;;;;;;;;;;;11.80;81.10;;;10.79;64.00;100090.50;4990470;28;19929;-76
2023/02/22 11:29:14;;;;;;;;;;;11.90;81.00;;;10.82;63.31;100090.84;4990272;28;20016;-76
2023/02/22 11:31:43;;;;;;;;;;;11.90;80.00;;;10.86;63.32;100090.41;4999930;28;19956;-76
2023/02/22 11:34:35;;;;;;;;;;;12.00;80.00;;;10.85;63.93;100084.25;4996283;28;19926;-76
2023/02/22 11:37:16;;;;;;;;;;;12.00;80.40;;;10.87;63.08;100086.69;4987677;28;19940;-76